Time;durP1;ratioP1;P1;durP2;ratioP2;P2;SDS_P1;SDS_P2;PMS_P1;PMS_P2;Temp;Humidity;BMP_temperature;BMP_pressure;BME280_temperature;BME280_humidity;BME280_pressure;Samples;Min_cycle;Max_cycle;Signal;HPM_P1;HPM_P2
2021/09/21 00:00:12;;;;;;;14.88;13.25;;;;;;;;;;4988781;28;20022;-64
2021/09/21 00:02:37;;;;;;;17.40;13.98;;;;;;;;;;4979746;28;20082;-62
2021/09/21 00:05:03;;;;;;;15.90;13.32;;;;;;;;;;4995607;28;20117;-64
2021/09/21 00:07:28;;;;;;;15.73;13.25;;;;;;;;;;4974328;28;20038;-64
2021/09/21 00:09:53;;;;;;;14.75;13.13;;;;;;;;;;4992946;28;20117;-64
2021/09/21 00:12:19;;;;;;;18.30;13.93;;;;;;;;;;4992971;28;20034;-64
2021/09/21 00:14:44;;;;;;;14.68;13.18;;;;;;;;;;4965059;28;20081;-57
2021/09/21 00:17:09;;;;;;;15.85;12.35;;;;;;;;;;4975459;28;20031;-64
2021/09/21 00:19:35;;;;;;;14.60;12.52;;;;;;;;;;4987497;28;20026;-64
2021/09/21 00:22:00;;;;;;;13.13;11.93;;;;;;;;;;4994368;28;20105;-64
2021/09/21 00:24:26;;;;;;;14.32;13.02;;;;;;;;;;4987536;28;20705;-64
2021/09/21 00:26:51;;;;;;;13.65;12.35;;;;;;;;;;4977335;28;20038;-64
2021/09/21 00:29:16;;;;;;;13.50;11.88;;;;;;;;;;4986134;28;20022;-62
2021/09/21 00:31:42;;;;;;;18.55;13.88;;;;;;;;;;4991151;28;20089;-64
2021/09/21 00:34:13;;;;;;;14.68;13.07;;;;;;;;;;4989278;28;21061;-64
2021/09/21 00:36:40;;;;;;;15.30;13.75;;;;;;;;;;4995895;28;20022;-66
2021/09/21 00:39:07;;;;;;;16.02;14.27;;;;;;;;;;4994362;28;20058;-64
2021/09/21 00:41:35;;;;;;;19.17;16.83;;;;;;;;;;4971382;28;20113;-64
2021/09/21 00:44:00;;;;;;;22.52;17.35;;;;;;;;;;4981652;28;20026;-64
2021/09/21 00:46:25;;;;;;;16.15;14.35;;;;;;;;;;4992095;28;20402;-60
2021/09/21 00:48:51;;;;;;;18.70;16.45;;;;;;;;;;4992394;28;20038;-64
2021/09/21 00:51:16;;;;;;;18.58;15.25;;;;;;;;;;4980770;28;20832;-64
2021/09/21 00:53:41;;;;;;;16.23;14.55;;;;;;;;;;4991294;28;20037;-64
2021/09/21 00:56:06;;;;;;;15.60;14.00;;;;;;;;;;4981561;28;20049;-64
2021/09/21 00:58:31;;;;;;;16.52;14.80;;;;;;;;;;4986697;28;20025;-63
2021/09/21 01:00:57;;;;;;;17.27;14.60;;;;;;;;;;4987362;28;20031;-64
2021/09/21 01:03:22;;;;;;;15.50;13.82;;;;;;;;;;4978431;28;20058;-63
2021/09/21 01:05:47;;;;;;;15.35;13.23;;;;;;;;;;4986824;28;20109;-60
2021/09/21 01:08:12;;;;;;;14.73;13.00;;;;;;;;;;4994753;28;20486;-64
2021/09/21 01:10:37;;;;;;;15.27;13.70;;;;;;;;;;4977003;28;20026;-63
2021/09/21 01:13:03;;;;;;;16.63;14.60;;;;;;;;;;4970155;28;20117;-63
2021/09/21 01:15:28;;;;;;;14.52;13.13;;;;;;;;;;4989597;28;20031;-63
2021/09/21 01:17:56;;;;;;;16.58;13.77;;;;;;;;;;4981832;28;20026;-64
2021/09/21 01:20:21;;;;;;;15.65;13.75;;;;;;;;;;4976466;28;20058;-63
2021/09/21 01:22:46;;;;;;;16.02;13.88;;;;;;;;;;4991963;28;20137;-65
2021/09/21 01:25:12;;;;;;;15.27;13.70;;;;;;;;;;4992515;28;20469;-65
2021/09/21 01:27:37;;;;;;;13.90;12.55;;;;;;;;;;4993836;28;20038;-61
2021/09/21 01:30:04;;;;;;;14.20;12.80;;;;;;;;;;4983286;28;20062;-63
2021/09/21 01:32:29;;;;;;;13.82;12.40;;;;;;;;;;4986070;28;20030;-64
2021/09/21 01:34:54;;;;;;;15.13;13.52;;;;;;;;;;4987574;28;20023;-64
2021/09/21 01:37:21;;;;;;;16.63;14.93;;;;;;;;;;4994266;28;20034;-64
2021/09/21 01:39:47;;;;;;;14.88;13.48;;;;;;;;;;4993886;28;20042;-64
2021/09/21 01:42:12;;;;;;;15.68;14.07;;;;;;;;;;4985316;28;20121;-63
2021/09/21 01:44:37;;;;;;;15.70;14.10;;;;;;;;;;4983902;28;20026;-63
2021/09/21 01:47:04;;;;;;;15.45;13.85;;;;;;;;;;4992415;28;20026;-64
2021/09/21 01:49:38;;;;;;;15.40;13.63;;;;;;;;;;4993068;28;20499;-64
2021/09/21 01:52:12;;;;;;;13.90;12.50;;;;;;;;;;4990591;28;20068;-64
2021/09/21 01:59:46;;;;;;;14.23;12.93;;;;;;;;;;4960747;28;20034;-64
2021/09/21 02:02:11;;;;;;;16.30;14.52;;;;;;;;;;4989931;28;20026;-64
2021/09/21 02:04:36;;;;;;;13.70;12.30;;;;;;;;;;4994400;28;20030;-64
2021/09/21 02:07:02;;;;;;;14.95;12.75;;;;;;;;;;4992803;28;20026;-64
2021/09/21 02:09:27;;;;;;;15.07;13.52;;;;;;;;;;4988427;28;20117;-64
2021/09/21 02:11:52;;;;;;;14.55;12.70;;;;;;;;;;4996863;28;20081;-64
2021/09/21 02:14:18;;;;;;;14.00;12.68;;;;;;;;;;4986411;28;20046;-64
2021/09/21 02:16:44;;;;;;;14.05;12.65;;;;;;;;;;4992886;28;20029;-64
2021/09/21 02:19:09;;;;;;;13.82;12.52;;;;;;;;;;4992022;28;20026;-64
2021/09/21 02:21:35;;;;;;;15.00;13.05;;;;;;;;;;4990946;28;20490;-64
2021/09/21 02:24:00;;;;;;;14.70;13.00;;;;;;;;;;4990985;28;20104;-64
2021/09/21 02:26:26;;;;;;;15.75;13.80;;;;;;;;;;4963447;28;20023;-64
2021/09/21 02:28:51;;;;;;;17.35;14.80;;;;;;;;;;4991385;28;20026;-64
2021/09/21 02:31:16;;;;;;;16.25;14.65;;;;;;;;;;4992620;28;20046;-64
2021/09/21 02:33:42;;;;;;;16.10;14.50;;;;;;;;;;4992008;28;20025;-64
2021/09/21 02:36:07;;;;;;;14.30;12.90;;;;;;;;;;4993981;28;20033;-60
2021/09/21 02:38:33;;;;;;;14.93;13.57;;;;;;;;;;4992261;28;20022;-64
2021/09/21 02:40:58;;;;;;;14.50;13.00;;;;;;;;;;4992237;28;20031;-64
2021/09/21 02:43:23;;;;;;;16.08;14.38;;;;;;;;;;4981971;28;20466;-64
2021/09/21 02:45:49;;;;;;;15.75;14.15;;;;;;;;;;4989469;28;20040;-64
2021/09/21 02:48:16;;;;;;;16.40;14.70;;;;;;;;;;5002291;28;20101;-64
2021/09/21 02:50:41;;;;;;;17.05;15.35;;;;;;;;;;4972204;28;20051;-65
2021/09/21 02:53:06;;;;;;;17.02;15.32;;;;;;;;;;4961353;28;20027;-65
2021/09/21 02:55:32;;;;;;;16.08;14.55;;;;;;;;;;4970830;28;20035;-64
2021/09/21 02:57:57;;;;;;;16.15;14.55;;;;;;;;;;4971803;28;20035;-65
2021/09/21 03:00:25;;;;;;;16.40;14.48;;;;;;;;;;4945265;28;20031;-64
2021/09/21 03:02:51;;;;;;;16.02;14.32;;;;;;;;;;4962463;28;20038;-65
2021/09/21 03:05:28;;;;;;;15.13;13.60;;;;;;;;;;4970562;28;20026;-63
2021/09/21 03:08:05;;;;;;;14.93;13.52;;;;;;;;;;4966246;28;20113;-65
2021/09/21 03:10:44;;;;;;;15.57;13.18;;;;;;;;;;4971911;28;20031;-64
2021/09/21 03:18:28;;;;;;;14.68;13.10;;;;;;;;;;4972848;28;20082;-64
2021/09/21 03:20:53;;;;;;;15.52;13.82;;;;;;;;;;4971212;28;20023;-64
2021/09/21 03:23:18;;;;;;;19.45;14.30;;;;;;;;;;4967717;28;20102;-64
2021/09/21 03:25:44;;;;;;;15.60;14.20;;;;;;;;;;4964114;28;20061;-64
2021/09/21 03:28:09;;;;;;;16.40;14.73;;;;;;;;;;4957484;28;20062;-64
2021/09/21 03:30:34;;;;;;;16.50;13.63;;;;;;;;;;4970351;28;20030;-64
2021/09/21 03:33:00;;;;;;;17.25;14.80;;;;;;;;;;4968269;28;20109;-64
2021/09/21 03:35:25;;;;;;;16.63;14.90;;;;;;;;;;4979762;28;20026;-64
2021/09/21 03:37:50;;;;;;;15.88;14.30;;;;;;;;;;4976372;28;20026;-63
2021/09/21 03:40:15;;;;;;;16.77;14.93;;;;;;;;;;4972761;28;20080;-64
2021/09/21 03:42:40;;;;;;;16.25;13.73;;;;;;;;;;4971694;28;20023;-64
2021/09/21 03:45:06;;;;;;;15.85;14.35;;;;;;;;;;4969014;28;20355;-64
2021/09/21 03:47:31;;;;;;;15.55;13.52;;;;;;;;;;4965940;28;20467;-64
2021/09/21 03:49:56;;;;;;;14.52;13.02;;;;;;;;;;4966656;28;20125;-64
2021/09/21 03:52:22;;;;;;;14.65;13.10;;;;;;;;;;4973171;28;20029;-64
2021/09/21 03:54:47;;;;;;;14.45;13.00;;;;;;;;;;4971099;28;20158;-62
2021/09/21 03:57:12;;;;;;;16.63;13.45;;;;;;;;;;4972067;28;20046;-64
2021/09/21 03:59:37;;;;;;;13.40;12.10;;;;;;;;;;4954327;28;20033;-62
2021/09/21 04:02:03;;;;;;;13.93;11.80;;;;;;;;;;4972835;28;20026;-64
2021/09/21 04:04:28;;;;;;;12.75;11.45;;;;;;;;;;4971051;28;20046;-64
2021/09/21 04:06:53;;;;;;;12.90;11.70;;;;;;;;;;4952315;28;20034;-64
2021/09/21 04:09:18;;;;;;;13.73;12.30;;;;;;;;;;4973470;28;20509;-64
2021/09/21 04:11:43;;;;;;;14.80;13.32;;;;;;;;;;4971866;28;20048;-64
2021/09/21 04:14:09;;;;;;;15.48;13.80;;;;;;;;;;4973492;28;20075;-64
2021/09/21 04:16:34;;;;;;;15.82;13.23;;;;;;;;;;4968616;28;20069;-64
2021/09/21 04:19:00;;;;;;;14.73;13.32;;;;;;;;;;4963161;28;20363;-64
2021/09/21 04:21:26;;;;;;;14.48;13.05;;;;;;;;;;4960558;28;20083;-63
2021/09/21 04:23:51;;;;;;;15.48;13.88;;;;;;;;;;4965834;28;20031;-63
2021/09/21 04:26:16;;;;;;;15.57;13.52;;;;;;;;;;4948254;28;20052;-60
2021/09/21 04:28:41;;;;;;;15.95;14.02;;;;;;;;;;4964904;28;20372;-65
2021/09/21 04:31:10;;;;;;;15.10;13.52;;;;;;;;;;4971931;28;20109;-64
2021/09/21 04:33:39;;;;;;;14.45;13.02;;;;;;;;;;4970684;28;20037;-65
2021/09/21 04:36:06;;;;;;;14.68;12.93;;;;;;;;;;4973832;28;20023;-65
2021/09/21 04:38:31;;;;;;;15.05;13.57;;;;;;;;;;4968155;28;20391;-64
2021/09/21 04:40:56;;;;;;;16.40;14.00;;;;;;;;;;4970282;28;20054;-63
2021/09/21 04:43:22;;;;;;;16.77;15.18;;;;;;;;;;4969932;28;20019;-64
2021/09/21 04:45:47;;;;;;;17.13;15.35;;;;;;;;;;4951270;28;20030;-64
2021/09/21 04:48:12;;;;;;;17.25;15.52;;;;;;;;;;4972422;28;20023;-64
2021/09/21 04:50:37;;;;;;;19.33;15.75;;;;;;;;;;4986488;28;20125;-64
2021/09/21 04:53:03;;;;;;;18.67;16.60;;;;;;;;;;4968116;28;20034;-64
2021/09/21 04:55:28;;;;;;;17.27;15.10;;;;;;;;;;4982219;28;20014;-63
2021/09/21 04:57:53;;;;;;;20.15;15.88;;;;;;;;;;5015169;28;20022;-65
2021/09/21 05:00:19;;;;;;;18.52;16.60;;;;;;;;;;5004907;28;20033;-64
2021/09/21 05:02:44;;;;;;;17.85;15.80;;;;;;;;;;4974234;28;20042;-64
2021/09/21 05:05:09;;;;;;;16.92;15.05;;;;;;;;;;4978836;28;20434;-63
2021/09/21 05:07:35;;;;;;;18.08;16.10;;;;;;;;;;4994548;28;20393;-63
2021/09/21 05:10:00;;;;;;;17.08;15.27;;;;;;;;;;4984084;28;20042;-62
2021/09/21 05:12:26;;;;;;;19.25;15.13;;;;;;;;;;4993944;28;20027;-65
2021/09/21 05:14:51;;;;;;;16.95;15.15;;;;;;;;;;4988431;28;20393;-64
2021/09/21 05:17:16;;;;;;;17.02;15.23;;;;;;;;;;5000055;28;20501;-61
2021/09/21 05:19:41;;;;;;;18.10;15.65;;;;;;;;;;4975548;28;20493;-64
2021/09/21 05:22:06;;;;;;;17.17;15.57;;;;;;;;;;4993932;28;20117;-64
2021/09/21 05:24:32;;;;;;;16.35;14.43;;;;;;;;;;4993225;28;20033;-64
2021/09/21 05:26:57;;;;;;;16.60;14.68;;;;;;;;;;4994958;28;20030;-62
2021/09/21 05:29:22;;;;;;;15.98;14.35;;;;;;;;;;4986606;28;20030;-65
2021/09/21 05:31:47;;;;;;;16.52;14.90;;;;;;;;;;4987048;28;20037;-64
2021/09/21 05:34:12;;;;;;;17.15;15.30;;;;;;;;;;4994361;28;20033;-65
2021/09/21 05:36:38;;;;;;;15.85;13.98;;;;;;;;;;4987512;28;20018;-64
2021/09/21 05:39:03;;;;;;;17.98;16.25;;;;;;;;;;4993902;28;20026;-64
2021/09/21 05:41:28;;;;;;;19.60;15.68;;;;;;;;;;4982803;28;20088;-64
2021/09/21 05:43:54;;;;;;;20.38;16.60;;;;;;;;;;4987727;28;20030;-64
2021/09/21 05:46:19;;;;;;;19.20;17.25;;;;;;;;;;4979049;28;20054;-63
2021/09/21 05:48:44;;;;;;;18.48;16.48;;;;;;;;;;4992829;28;20076;-65
2021/09/21 05:51:09;;;;;;;19.52;16.85;;;;;;;;;;4989066;28;20109;-65
2021/09/21 05:53:34;;;;;;;18.10;16.30;;;;;;;;;;4984591;28;20414;-65
2021/09/21 05:56:00;;;;;;;17.38;15.60;;;;;;;;;;4983025;28;20363;-65
2021/09/21 05:58:25;;;;;;;18.75;16.92;;;;;;;;;;5004593;28;20609;-64
2021/09/21 06:00:50;;;;;;;18.55;15.90;;;;;;;;;;4996544;28;20030;-64
2021/09/21 06:03:15;;;;;;;18.15;16.23;;;;;;;;;;4990311;28;20030;-64
2021/09/21 06:05:41;;;;;;;17.58;15.88;;;;;;;;;;4983335;28;20014;-64
2021/09/21 06:08:06;;;;;;;18.92;16.98;;;;;;;;;;4990441;28;20101;-63
2021/09/21 06:10:32;;;;;;;22.73;20.42;;;;;;;;;;4992256;28;20033;-67
2021/09/21 06:12:57;;;;;;;20.80;17.30;;;;;;;;;;4987992;28;20032;-64
2021/09/21 06:15:22;;;;;;;20.65;18.65;;;;;;;;;;4984108;28;20126;-65
2021/09/21 06:17:48;;;;;;;20.98;18.83;;;;;;;;;;4992468;28;20475;-65
2021/09/21 06:20:14;;;;;;;19.25;17.25;;;;;;;;;;4992860;28;20093;-65
2021/09/21 06:22:40;;;;;;;18.80;16.80;;;;;;;;;;4991485;28;20078;-60
2021/09/21 06:25:07;;;;;;;18.90;17.00;;;;;;;;;;4973293;28;20051;-64
2021/09/21 06:27:32;;;;;;;21.48;18.10;;;;;;;;;;4992147;28;20022;-64
2021/09/21 06:29:57;;;;;;;18.83;16.85;;;;;;;;;;4992250;28;20489;-64
2021/09/21 06:32:23;;;;;;;17.60;15.82;;;;;;;;;;4990168;28;20026;-65
2021/09/21 06:34:48;;;;;;;18.48;16.60;;;;;;;;;;4991992;28;20046;-65
2021/09/21 06:37:14;;;;;;;17.40;15.35;;;;;;;;;;4966813;28;20127;-65
2021/09/21 06:39:39;;;;;;;18.17;15.73;;;;;;;;;;4990562;28;20026;-58
2021/09/21 06:42:04;;;;;;;21.55;18.15;;;;;;;;;;4992089;28;20053;-65
2021/09/21 06:44:30;;;;;;;19.92;16.42;;;;;;;;;;4980438;28;20356;-65
2021/09/21 06:46:55;;;;;;;19.88;17.92;;;;;;;;;;4989078;28;20049;-64
2021/09/21 06:49:20;;;;;;;17.38;15.63;;;;;;;;;;4985796;28;20037;-65
2021/09/21 06:51:45;;;;;;;18.88;16.35;;;;;;;;;;4969749;28;20031;-64
2021/09/21 06:54:11;;;;;;;16.88;15.18;;;;;;;;;;4971707;28;20030;-65
2021/09/21 06:56:36;;;;;;;19.02;15.57;;;;;;;;;;4939314;28;20022;-65
2021/09/21 06:59:02;;;;;;;16.63;15.02;;;;;;;;;;4954042;28;20035;-65
2021/09/21 07:01:28;;;;;;;15.10;13.52;;;;;;;;;;4968574;28;20031;-64
2021/09/21 07:03:54;;;;;;;17.13;15.27;;;;;;;;;;4970318;28;20031;-64
2021/09/21 07:06:19;;;;;;;16.48;14.80;;;;;;;;;;4953166;28;20542;-64
2021/09/21 07:08:44;;;;;;;16.00;14.40;;;;;;;;;;4972468;28;20035;-64
2021/09/21 07:11:09;;;;;;;17.70;15.52;;;;;;;;;;4971701;28;20037;-65
2021/09/21 07:13:35;;;;;;;15.10;13.60;;;;;;;;;;4965207;28;20027;-64
2021/09/21 07:16:00;;;;;;;13.25;11.57;;;;;;;;;;4971782;28;20015;-64
2021/09/21 07:18:25;;;;;;;14.20;12.70;;;;;;;;;;4967447;28;20030;-65
2021/09/21 07:20:50;;;;;;;12.95;11.45;;;;;;;;;;4964771;28;20471;-64
2021/09/21 07:23:16;;;;;;;13.93;12.00;;;;;;;;;;4942490;28;20098;-64
2021/09/21 07:25:41;;;;;;;13.52;11.15;;;;;;;;;;4952753;28;20096;-64
2021/09/21 07:28:06;;;;;;;13.95;12.68;;;;;;;;;;4940256;28;20038;-61
2021/09/21 07:30:32;;;;;;;13.00;11.65;;;;;;;;;;4970863;28;20109;-65
2021/09/21 07:32:57;;;;;;;11.90;10.35;;;;;;;;;;4969820;28;20485;-64
2021/09/21 07:35:23;;;;;;;11.82;10.73;;;;;;;;;;4970871;28;20031;-65
2021/09/21 07:37:48;;;;;;;12.25;10.93;;;;;;;;;;4946853;28;20058;-65
2021/09/21 07:40:14;;;;;;;13.70;12.27;;;;;;;;;;4965711;28;20023;-65
2021/09/21 07:42:39;;;;;;;13.18;11.77;;;;;;;;;;4964333;28;20019;-65
2021/09/21 07:45:05;;;;;;;13.30;11.57;;;;;;;;;;4965714;28;20275;-65
2021/09/21 07:47:30;;;;;;;12.60;11.30;;;;;;;;;;4966722;28;20490;-65
2021/09/21 07:49:56;;;;;;;13.00;11.35;;;;;;;;;;4976613;28;20136;-65
2021/09/21 07:52:21;;;;;;;11.93;10.48;;;;;;;;;;4990872;28;20041;-63
2021/09/21 07:54:46;;;;;;;13.60;10.80;;;;;;;;;;4990234;28;20477;-64
2021/09/21 07:57:12;;;;;;;10.82;9.65;;;;;;;;;;4991304;28;20416;-65
2021/09/21 07:59:40;;;;;;;12.80;9.32;;;;;;;;;;4990324;28;20439;-65
2021/09/21 08:02:08;;;;;;;12.38;8.93;;;;;;;;;;4990471;28;20027;-65
2021/09/21 08:04:33;;;;;;;11.73;10.48;;;;;;;;;;4990777;28;20050;-65
2021/09/21 08:06:58;;;;;;;10.23;9.23;;;;;;;;;;4990338;28;20054;-65
2021/09/21 08:09:23;;;;;;;9.95;9.05;;;;;;;;;;4978083;28;20031;-65
2021/09/21 08:11:49;;;;;;;12.68;9.50;;;;;;;;;;4991044;28;20031;-65
2021/09/21 08:14:14;;;;;;;9.70;7.93;;;;;;;;;;4987582;28;20131;-65
2021/09/21 08:16:39;;;;;;;9.23;7.40;;;;;;;;;;4990784;28;20022;-65
2021/09/21 08:19:05;;;;;;;9.07;7.88;;;;;;;;;;4995533;28;20360;-66
2021/09/21 08:21:30;;;;;;;8.25;7.45;;;;;;;;;;4974606;28;20041;-66
2021/09/21 08:23:55;;;;;;;8.43;7.18;;;;;;;;;;4994277;28;20594;-65
2021/09/21 08:26:20;;;;;;;8.63;6.78;;;;;;;;;;4994496;28;20101;-66
2021/09/21 08:28:46;;;;;;;7.97;6.80;;;;;;;;;;4995901;28;20041;-65
2021/09/21 08:31:11;;;;;;;9.52;7.25;;;;;;;;;;5000729;28;20110;-65
2021/09/21 08:33:36;;;;;;;7.95;7.15;;;;;;;;;;4995698;28;20058;-62
2021/09/21 08:36:01;;;;;;;7.50;6.10;;;;;;;;;;4995640;28;20072;-65
2021/09/21 08:38:26;;;;;;;8.32;7.32;;;;;;;;;;4993200;28;20037;-64
2021/09/21 08:40:52;;;;;;;7.65;6.65;;;;;;;;;;4994722;28;20019;-65
2021/09/21 08:43:17;;;;;;;7.75;6.88;;;;;;;;;;4995562;28;20033;-65
2021/09/21 08:45:42;;;;;;;8.88;6.50;;;;;;;;;;4977729;28;20530;-65
2021/09/21 08:48:07;;;;;;;6.78;6.15;;;;;;;;;;4981142;28;20030;-65
2021/09/21 08:50:33;;;;;;;8.40;6.50;;;;;;;;;;4980013;28;20049;-66
2021/09/21 08:52:58;;;;;;;10.32;6.63;;;;;;;;;;4980477;28;20034;-64
2021/09/21 08:55:23;;;;;;;8.02;5.80;;;;;;;;;;4974776;28;20033;-65
2021/09/21 08:57:50;;;;;;;5.50;4.80;;;;;;;;;;4975197;28;20027;-66
2021/09/21 09:00:26;;;;;;;8.45;6.78;;;;;;;;;;4964291;28;20471;-65
2021/09/21 09:03:01;;;;;;;8.15;4.70;;;;;;;;;;4967298;28;20474;-65
2021/09/21 09:05:26;;;;;;;5.97;5.38;;;;;;;;;;4975816;28;20023;-64
2021/09/21 09:07:52;;;;;;;5.45;4.65;;;;;;;;;;4975883;28;20030;-65
2021/09/21 09:10:19;;;;;;;5.13;3.97;;;;;;;;;;4975196;28;20057;-64
2021/09/21 09:12:45;;;;;;;5.40;4.85;;;;;;;;;;4973043;28;20122;-65
2021/09/21 09:15:12;;;;;;;6.35;4.82;;;;;;;;;;4972043;28;20505;-64
2021/09/21 09:17:38;;;;;;;6.60;4.47;;;;;;;;;;4974796;28;20318;-62
2021/09/21 09:20:04;;;;;;;7.30;4.78;;;;;;;;;;4976131;28;20019;-65
2021/09/21 09:22:29;;;;;;;6.03;4.88;;;;;;;;;;4979159;28;20025;-65
2021/09/21 09:24:56;;;;;;;5.40;4.80;;;;;;;;;;4979057;28;20394;-64
2021/09/21 09:27:34;;;;;;;6.47;4.93;;;;;;;;;;4974865;28;20042;-65
2021/09/21 09:30:01;;;;;;;5.40;4.97;;;;;;;;;;4975212;28;20022;-64
2021/09/21 09:32:26;;;;;;;4.40;3.97;;;;;;;;;;4973488;28;20023;-65
2021/09/21 09:34:51;;;;;;;5.07;3.92;;;;;;;;;;4968278;28;20027;-64
2021/09/21 09:37:18;;;;;;;5.03;4.07;;;;;;;;;;4955886;29;20038;-65
2021/09/21 09:39:45;;;;;;;4.50;3.85;;;;;;;;;;4966054;28;20034;-65
2021/09/21 09:42:12;;;;;;;5.28;4.55;;;;;;;;;;4975063;28;20026;-65
2021/09/21 09:44:37;;;;;;;6.75;4.93;;;;;;;;;;4951220;28;20506;-63
2021/09/21 09:47:04;;;;;;;5.50;4.63;;;;;;;;;;4957362;28;20026;-65
2021/09/21 09:49:29;;;;;;;6.10;4.28;;;;;;;;;;4983444;28;20386;-64
2021/09/21 09:54:29;;;;;;;;;;;;;;;;;;5169740;23;20422;-75
2021/09/21 09:56:55;;;;;;;6.90;5.55;;;;;;;;;;4986309;28;19996;-75
2021/09/21 09:59:20;;;;;;;5.85;4.95;;;;;;;;;;4970300;28;20105;-75
2021/09/21 10:01:46;;;;;;;7.13;4.90;;;;;;;;;;4991463;28;20483;-75
2021/09/21 10:04:14;;;;;;;6.43;5.82;;;;;;;;;;4992773;28;20033;-75
2021/09/21 10:06:40;;;;;;;7.38;5.80;;;;;;;;;;4996169;28;20368;-74
2021/09/21 10:09:05;;;;;;;6.95;6.25;;;;;;;;;;5013451;28;20025;-75
2021/09/21 10:11:30;;;;;;;5.93;5.43;;;;;;;;;;5013216;28;20049;-75
2021/09/21 10:13:58;;;;;;;6.85;5.43;;;;;;;;;;5004655;28;20530;-75
2021/09/21 10:16:23;;;;;;;5.05;4.55;;;;;;;;;;5010685;28;20050;-75
2021/09/21 10:18:52;;;;;;;6.32;4.28;;;;;;;;;;4995677;28;20060;-75
2021/09/21 10:21:28;;;;;;;5.35;4.70;;;;;;;;;;4995258;28;20519;-77
2021/09/21 10:23:54;;;;;;;5.97;4.80;;;;;;;;;;4994722;28;20041;-75
2021/09/21 10:26:19;;;;;;;6.72;4.88;;;;;;;;;;4995109;28;20025;-76
2021/09/21 10:28:49;;;;;;;4.43;4.03;;;;;;;;;;5011855;28;20026;-76
2021/09/21 10:31:16;;;;;;;6.57;4.88;;;;;;;;;;5012789;28;20026;-76
2021/09/21 10:33:41;;;;;;;5.72;5.13;;;;;;;;;;4995271;28;20554;-74
2021/09/21 10:36:20;;;;;;;4.75;4.22;;;;;;;;;;4995575;28;20105;-74
2021/09/21 10:38:56;;;;;;;4.72;4.32;;;;;;;;;;5012432;28;20052;-74
2021/09/21 10:41:21;;;;;;;4.40;4.00;;;;;;;;;;5012367;28;20487;-75
2021/09/21 10:43:56;;;;;;;4.32;3.92;;;;;;;;;;5011848;28;20041;-74
2021/09/21 10:46:23;;;;;;;4.03;3.40;;;;;;;;;;4994427;28;20032;-74
2021/09/21 10:48:48;;;;;;;3.95;3.63;;;;;;;;;;5012277;28;20036;-81
2021/09/21 10:51:13;;;;;;;4.25;3.85;;;;;;;;;;4994864;28;20399;-73
2021/09/21 10:53:39;;;;;;;3.92;3.42;;;;;;;;;;4980783;28;20399;-73
2021/09/21 10:56:07;;;;;;;5.78;3.95;;;;;;;;;;4992988;28;20073;-82
2021/09/21 10:58:32;;;;;;;5.38;3.95;;;;;;;;;;4974762;28;20459;-73
2021/09/21 11:00:58;;;;;;;5.07;3.90;;;;;;;;;;4975085;28;20026;-75
2021/09/21 11:03:24;;;;;;;6.78;4.70;;;;;;;;;;4975466;28;20029;-73
2021/09/21 11:05:50;;;;;;;7.38;5.65;;;;;;;;;;4992081;28;20018;-76
2021/09/21 11:08:17;;;;;;;5.07;4.55;;;;;;;;;;4991892;28;20018;-76
2021/09/21 11:10:49;;;;;;;7.07;4.93;;;;;;;;;;4991902;28;20030;-75
2021/09/21 11:13:16;;;;;;;6.93;6.18;;;;;;;;;;4969101;28;20054;-76
2021/09/21 11:15:42;;;;;;;7.25;6.10;;;;;;;;;;4991111;28;20014;-77
2021/09/21 11:18:09;;;;;;;10.38;7.53;;;;;;;;;;4974458;28;20072;-75
2021/09/21 11:20:47;;;;;;;7.32;6.13;;;;;;;;;;5003417;28;20026;-75
2021/09/21 11:23:12;;;;;;;9.38;7.50;;;;;;;;;;4982763;28;20026;-75
2021/09/21 11:25:37;;;;;;;7.85;7.05;;;;;;;;;;4992218;28;20026;-74
2021/09/21 11:28:03;;;;;;;10.52;9.65;;;;;;;;;;4956123;28;20026;-78
2021/09/21 11:30:28;;;;;;;11.75;10.75;;;;;;;;;;4969240;28;20031;-76
2021/09/21 11:32:53;;;;;;;13.95;12.57;;;;;;;;;;4988956;28;20554;-78
2021/09/21 11:35:19;;;;;;;15.05;13.55;;;;;;;;;;4987905;28;20034;-76
2021/09/21 11:37:49;;;;;;;13.73;12.43;;;;;;;;;;4991637;28;20420;-73
2021/09/21 11:40:28;;;;;;;11.80;10.70;;;;;;;;;;4988069;28;20026;-73
2021/09/21 11:42:54;;;;;;;9.55;7.72;;;;;;;;;;4987828;28;20024;-73
2021/09/21 11:45:19;;;;;;;13.48;12.25;;;;;;;;;;4991563;28;20490;-73
2021/09/21 11:47:49;;;;;;;13.27;12.07;;;;;;;;;;4989083;28;20046;-73
2021/09/21 11:50:16;;;;;;;14.40;13.00;;;;;;;;;;4983215;28;20014;-73
2021/09/21 11:52:45;;;;;;;14.40;13.07;;;;;;;;;;4984222;28;20027;-73
2021/09/21 11:55:14;;;;;;;13.63;12.32;;;;;;;;;;4991168;28;20030;-73
2021/09/21 11:57:40;;;;;;;13.40;12.02;;;;;;;;;;5011382;28;20033;-74
2021/09/21 12:00:06;;;;;;;14.63;13.25;;;;;;;;;;4992723;28;20033;-73
2021/09/21 12:02:34;;;;;;;13.52;12.32;;;;;;;;;;4993287;28;20025;-73
2021/09/21 12:05:00;;;;;;;9.88;8.88;;;;;;;;;;4987895;28;20026;-73
2021/09/21 12:07:25;;;;;;;11.65;10.65;;;;;;;;;;4990589;28;20076;-74
2021/09/21 12:09:52;;;;;;;12.15;11.15;;;;;;;;;;4999854;28;20030;-73
2021/09/21 12:12:23;;;;;;;12.93;11.73;;;;;;;;;;5010922;28;20018;-74
2021/09/21 12:14:55;;;;;;;13.77;12.48;;;;;;;;;;4992308;28;20026;-74
2021/09/21 12:17:21;;;;;;;11.20;10.30;;;;;;;;;;5010765;28;20352;-73
2021/09/21 12:19:46;;;;;;;10.43;9.53;;;;;;;;;;5011759;28;20083;-74
2021/09/21 12:22:18;;;;;;;10.90;10.00;;;;;;;;;;4992550;28;20380;-73
2021/09/21 12:24:43;;;;;;;10.85;9.60;;;;;;;;;;4999002;28;20017;-74
2021/09/21 12:27:08;;;;;;;11.07;10.07;;;;;;;;;;4993496;28;20091;-73
2021/09/21 12:29:33;;;;;;;10.52;9.65;;;;;;;;;;4993746;28;20288;-73
2021/09/21 12:31:59;;;;;;;11.10;10.00;;;;;;;;;;5010764;28;20017;-72
2021/09/21 12:34:30;;;;;;;10.38;9.27;;;;;;;;;;5009999;28;20018;-73
2021/09/21 12:36:58;;;;;;;8.60;7.82;;;;;;;;;;5003970;28;20104;-74
2021/09/21 12:39:23;;;;;;;9.07;8.27;;;;;;;;;;5012654;28;20490;-74
2021/09/21 12:41:50;;;;;;;8.80;7.93;;;;;;;;;;4997285;28;20030;-73
2021/09/21 12:44:21;;;;;;;8.80;7.65;;;;;;;;;;5010886;28;20032;-74
2021/09/21 12:46:47;;;;;;;7.43;6.72;;;;;;;;;;4988589;28;20137;-74
2021/09/21 12:49:17;;;;;;;7.95;7.32;;;;;;;;;;5011281;28;20113;-75
2021/09/21 12:51:47;;;;;;;9.98;8.80;;;;;;;;;;4993027;28;20108;-78
2021/09/21 12:54:14;;;;;;;9.25;8.32;;;;;;;;;;4993392;28;20101;-75
2021/09/21 12:56:41;;;;;;;8.85;7.95;;;;;;;;;;5002359;28;20071;-77
2021/09/21 12:59:09;;;;;;;8.98;7.25;;;;;;;;;;4992435;28;20533;-74
2021/09/21 13:01:34;;;;;;;9.35;8.23;;;;;;;;;;5010314;28;20482;-76
2021/09/21 13:04:00;;;;;;;8.05;7.35;;;;;;;;;;4991534;28;20068;-75
2021/09/21 13:06:25;;;;;;;8.68;7.75;;;;;;;;;;4992289;28;20041;-76
2021/09/21 13:08:50;;;;;;;7.72;5.53;;;;;;;;;;4995028;28;20036;-75
2021/09/21 13:11:15;;;;;;;5.82;5.07;;;;;;;;;;4994486;28;20089;-75
2021/09/21 13:13:41;;;;;;;7.60;6.88;;;;;;;;;;5001401;28;20101;-73
2021/09/21 13:16:07;;;;;;;6.05;5.35;;;;;;;;;;4996602;28;20054;-72
2021/09/21 13:18:33;;;;;;;6.43;5.30;;;;;;;;;;5014430;28;20390;-73
2021/09/21 13:20:58;;;;;;;3.67;3.35;;;;;;;;;;5014011;28;20022;-73
2021/09/21 13:23:23;;;;;;;5.97;4.10;;;;;;;;;;5009758;28;20486;-72
2021/09/21 13:25:49;;;;;;;5.28;3.70;;;;;;;;;;4995705;28;20450;-73
2021/09/21 13:28:14;;;;;;;4.78;4.07;;;;;;;;;;5013780;28;20372;-73
2021/09/21 13:30:39;;;;;;;6.15;4.85;;;;;;;;;;4999009;28;20045;-73
2021/09/21 13:33:06;;;;;;;5.18;4.78;;;;;;;;;;5013974;28;20030;-73
2021/09/21 13:35:32;;;;;;;5.18;4.68;;;;;;;;;;5013134;28;20433;-73
2021/09/21 13:37:57;;;;;;;6.00;5.40;;;;;;;;;;5013397;28;20108;-73
2021/09/21 13:40:22;;;;;;;6.90;5.57;;;;;;;;;;5014410;28;20057;-73
2021/09/21 13:42:49;;;;;;;5.40;4.85;;;;;;;;;;5031657;28;20017;-73
2021/09/21 13:45:16;;;;;;;5.93;5.43;;;;;;;;;;5007753;28;20026;-73
2021/09/21 13:47:44;;;;;;;7.05;6.30;;;;;;;;;;5014020;28;20485;-74
2021/09/21 13:50:10;;;;;;;5.95;5.45;;;;;;;;;;5012694;28;20032;-72
2021/09/21 13:52:35;;;;;;;6.70;5.90;;;;;;;;;;5012080;28;20033;-72
2021/09/21 13:55:01;;;;;;;7.00;6.35;;;;;;;;;;4963023;28;20029;-72
2021/09/21 13:57:26;;;;;;;7.05;6.13;;;;;;;;;;5013792;28;20151;-72
2021/09/21 13:59:51;;;;;;;6.47;5.88;;;;;;;;;;4997607;28;20379;-73
2021/09/21 14:02:16;;;;;;;8.13;7.25;;;;;;;;;;5011576;28;20028;-72
2021/09/21 14:04:41;;;;;;;8.00;7.20;;;;;;;;;;5022404;28;20479;-72
2021/09/21 14:07:07;;;;;;;6.82;6.00;;;;;;;;;;4994699;28;20081;-72
2021/09/21 14:09:32;;;;;;;8.18;6.60;;;;;;;;;;5010239;28;20037;-72
2021/09/21 14:11:58;;;;;;;6.93;6.20;;;;;;;;;;5009055;28;20018;-72
2021/09/21 14:14:23;;;;;;;6.90;6.30;;;;;;;;;;5012612;28;20022;-73
2021/09/21 14:16:50;;;;;;;7.07;6.38;;;;;;;;;;4994362;28;20022;-74
2021/09/21 14:19:15;;;;;;;7.32;6.65;;;;;;;;;;4988074;28;20069;-73
2021/09/21 14:21:40;;;;;;;7.30;6.53;;;;;;;;;;4993766;28;20057;-73
2021/09/21 14:24:06;;;;;;;6.88;6.28;;;;;;;;;;5004578;28;20022;-73
2021/09/21 14:26:32;;;;;;;7.20;6.60;;;;;;;;;;4994279;28;20080;-73
2021/09/21 14:28:57;;;;;;;5.63;5.13;;;;;;;;;;4994074;28;20022;-73
2021/09/21 14:31:22;;;;;;;5.90;5.40;;;;;;;;;;5011057;28;20040;-74